Portada
METAR-TAF:

METAR-TAF

Aeroports :

Porto Alegre, Rio Grande do Sul, Brasil

latitud: 30-00S, longitud: 051-11W, altitud: 3 m

Observació

L'informe es va fer fa 48 minuts, a les 22:00 UTC
Vent 3 kt del Oest/Sud-Oest
Temperatura 13°C
Humitat 72%
Pressió 1025 hPa
Visibilitat 10 km o més
sense núvols per sota de 1500 mi sense presència de cumulonimbus.

METAR: SBPA 232200Z 25003KT CAVOK 13/08 Q1025

Hora: 19:48 (22:48 UTC)

Pronòstic

L'informe es va fer fa 6 hores i 33 minuts, a les 16:15 UTC
Pronòstic vàlid del 23 a les 18 UTC al 24 a les 18 UTC
Vent 5 kt del Oest
Visibilitat 10 km o més
sense núvols per sota de 1500 mi sense presència de cumulonimbus.
Probabilitat 30%
l' 24 a les 08 UTC al 24 a les 10 UTC
Visibilitat: 5000 m
boirina

TAF: SBPA 231615Z 2318/2418 28005KT CAVOK TX18/2318Z TN06/2408Z PROB30 2408/2410 5000 BR NSC RMK PCX

Observacions i pronòstics meteorològics de més de 4000 aeroports (METAR i TAF).

Les estacions disponibles són els punts grocs i vermells al mapa.

Posi el ratolí al punt desitjat per veure el nom de l'estació.

Feu clic per veure les observacions i els pronòstics meteorològics.

Per canviar el mapa: feu clic els botons verds amb una creu de color negre per apropar; al botó verd amb un guió per allunyar la imatge; o en les fletxes verdes per a mapes adjacents.


METAR-TAF: